| time (UTC) | temp F | wind direction | speed MPH | gust MPH | rain 1hr in | rain 24hr in | rain mn in | humidity % | barometer mb |
| 20260507033604 | 50 | 0 | 0.0 | 0.0 | 0.09 | 0.15 | 0.12 | 99 | 1014.9 |
| 20260507032704 | 51 | 0 | 0.0 | 0.0 | 0.12 | 0.15 | 0.12 | 99 | 1014.9 |
| 20260507031804 | 51 | 0 | 0.0 | 1.0 | 0.12 | 0.15 | 0.12 | 99 | 1014.8 |
| 20260507030904 | 51 | 0 | 0.0 | 1.0 | 0.12 | 0.15 | 0.12 | 99 | 1014.9 |
| 20260507030004 | 52 | 0 | 0.0 | 1.0 | 0.11 | 0.14 | 0.11 | 99 | 1014.9 |
| 20260507025425 | 52 | 0 | 0.0 | 1.0 | 0.11 | 0.14 | 0.11 | 99 | 1014.9 |
| 20260507024504 | 52 | 0 | 0.0 | 1.0 | 0.08 | 0.12 | 0.08 | 99 | 1014.9 |
| 20260507023604 | 53 | 0 | 0.0 | 0.0 | 0.02 | 0.06 | 0.02 | 99 | 1014.9 |
| 20260507022704 | 53 | 0 | 0.0 | 0.0 | 0.00 | 0.04 | 0.00 | 99 | 1014.9 |
| 20260507021804 | 53 | 0 | 0.0 | 0.0 | 0.00 | 0.04 | 0.00 | 99 | 1014.9 |
| 20260507020904 | 53 | 0 | 0.0 | 0.0 | 0.00 | 0.04 | 0.00 | 99 | 1014.9 |
| 20260507020025 | 53 | 0 | 0.0 | 0.0 | 0.00 | 0.04 | 0.00 | 99 | 1014.8 |
| 20260507015403 | 53 | 0 | 0.0 | 0.0 | 0.00 | 0.05 | 0.00 | 99 | 1015.0 |
| 20260507014503 | 53 | 0 | 0.0 | 0.0 | 0.00 | 0.06 | 0.00 | 99 | 1014.7 |
| 20260507013604 | 53 | 0 | 0.0 | 0.0 | 0.00 | 0.07 | 0.00 | 99 | 1014.7 |
| 20260507012703 | 53 | 0 | 0.0 | 0.0 | 0.00 | 0.08 | 0.00 | 99 | 1014.8 |
| 20260507011803 | 54 | 0 | 0.0 | 0.0 | 0.00 | 0.13 | 0.00 | 99 | 1014.8 |
| 20260507010903 | 54 | 0 | 0.0 | 1.0 | 0.00 | 0.13 | 0.00 | 99 | 1014.8 |
| 20260507010003 | 54 | 0 | 0.0 | 1.0 | 0.00 | 0.13 | 0.00 | 99 | 1014.8 |
| 20260507005403 | 55 | 0 | 0.0 | 0.0 | 0.00 | 0.13 | 0.00 | 99 | 1014.8 |
| 20260507004503 | 55 | 58 | 0.0 | 2.0 | 0.00 | 0.13 | 0.00 | 99 | 1014.8 |
| 20260507003603 | 56 | 0 | 0.0 | 0.0 | 0.00 | 0.13 | 0.00 | 99 | 1014.6 |
| 20260507002703 | 56 | 0 | 0.0 | 0.0 | 0.00 | 0.13 | 0.00 | 99 | 1014.6 |
| 20260507001803 | 56 | 0 | 0.0 | 0.0 | 0.00 | 0.13 | 0.00 | 99 | 1014.7 |
| 20260507000924 | 56 | 0 | 0.0 | 0.0 | 0.00 | 0.13 | 0.00 | 99 | 1014.7 |
| 20260507000003 | 56 | 0 | 0.0 | 0.0 | 0.00 | 0.13 | 0.00 | 99 | 1014.8 |
| 20260506235403 | 56 | 0 | 0.0 | 0.0 | 0.00 | 0.13 | 0.00 | 99 | 1014.9 |
| 20260506234503 | 56 | 0 | 0.0 | 0.0 | 0.00 | 0.13 | 0.00 | 99 | 1014.9 |
| 20260506233607 | 56 | 0 | 0.0 | 0.0 | 0.00 | 0.13 | 0.00 | 99 | 1014.8 |
| 20260506232707 | 56 | 0 | 0.0 | 0.0 | 0.00 | 0.13 | 0.00 | 99 | 1014.8 |
| 20260506231807 | 56 | 0 | 0.0 | 0.0 | 0.00 | 0.13 | 0.00 | 99 | 1014.9 |
| 20260506230907 | 57 | 0 | 0.0 | 0.0 | 0.00 | 0.13 | 0.00 | 99 | 1014.8 |
| 20260506230007 | 57 | 0 | 0.0 | 1.0 | 0.00 | 0.13 | 0.00 | 99 | 1015.0 |
| 20260506225407 | 57 | 0 | 0.0 | 1.0 | 0.00 | 0.13 | 0.00 | 99 | 1015.0 |
| 20260506224507 | 57 | 0 | 0.0 | 0.0 | 0.00 | 0.13 | 0.00 | 99 | 1015.1 |
| 20260506223607 | 57 | 0 | 0.0 | 0.0 | 0.00 | 0.13 | 0.00 | 99 | 1015.0 |
| 20260506222707 | 57 | 0 | 0.0 | 1.0 | 0.00 | 0.13 | 0.00 | 99 | 1015.0 |
| 20260506221807 | 57 | 90 | 0.0 | 2.0 | 0.00 | 0.13 | 0.00 | 99 | 1015.0 |
| 20260506220906 | 57 | 0 | 0.0 | 2.0 | 0.00 | 0.13 | 0.00 | 99 | 1015.0 |
| 20260506220007 | 57 | 96 | 0.0 | 2.0 | 0.00 | 0.13 | 0.00 | 99 | 1014.9 |
| 20260506215406 | 57 | 86 | 0.0 | 2.0 | 0.00 | 0.13 | 0.13 | 99 | 1015.0 |
| 20260506214506 | 57 | 74 | 0.0 | 2.0 | 0.00 | 0.13 | 0.13 | 99 | 1015.0 |
| 20260506213628 | 57 | 140 | 0.0 | 2.0 | 0.00 | 0.13 | 0.13 | 99 | 1015.0 |
| 20260506212706 | 57 | 115 | 0.0 | 2.0 | 0.00 | 0.13 | 0.13 | 99 | 1014.9 |
| 20260506211807 | 57 | 85 | 0.0 | 2.0 | 0.00 | 0.13 | 0.13 | 99 | 1015.0 |
| 20260506210906 | 57 | 88 | 0.0 | 3.0 | 0.00 | 0.13 | 0.13 | 99 | 1015.0 |
| 20260506210007 | 58 | 99 | 0.0 | 2.0 | 0.00 | 0.13 | 0.13 | 99 | 1015.0 |
| 20260506205406 | 58 | 118 | 0.0 | 2.0 | 0.00 | 0.13 | 0.13 | 99 | 1014.9 |
| 20260506204507 | 58 | 74 | 0.0 | 2.0 | 0.00 | 0.13 | 0.13 | 99 | 1014.8 |
| 20260506203607 | 58 | 105 | 0.0 | 2.0 | 0.00 | 0.13 | 0.13 | 99 | 1014.8 |
| 20260506202727 | 58 | 90 | 0.0 | 2.0 | 0.00 | 0.13 | 0.13 | 99 | 1014.8 |
| 20260506201806 | 58 | 0 | 0.0 | 0.0 | 0.00 | 0.13 | 0.13 | 99 | 1014.6 |
| 20260506200906 | 58 | 0 | 0.0 | 0.0 | 0.00 | 0.13 | 0.13 | 99 | 1014.6 |
| 20260506200028 | 57 | 0 | 0.0 | 1.0 | 0.00 | 0.13 | 0.13 | 99 | 1014.6 |
| 20260506195406 | 58 | 88 | 0.0 | 2.0 | 0.00 | 0.13 | 0.13 | 99 | 1014.5 |
| 20260506194506 | 58 | 113 | 0.0 | 3.0 | 0.00 | 0.13 | 0.13 | 99 | 1014.1 |
| 20260506193607 | 58 | 0 | 0.0 | 0.0 | 0.00 | 0.13 | 0.13 | 99 | 1014.2 |
| 20260506192706 | 58 | 108 | 0.0 | 3.0 | 0.00 | 0.13 | 0.13 | 99 | 1014.1 |
| 20260506191806 | 58 | 92 | 0.0 | 3.0 | 0.00 | 0.13 | 0.13 | 99 | 1013.9 |
| 20260506190906 | 58 | 0 | 0.0 | 1.0 | 0.00 | 0.13 | 0.13 | 99 | 1013.8 |
| 20260506190007 | 58 | 93 | 0.0 | 2.0 | 0.00 | 0.13 | 0.13 | 99 | 1013.7 |
| 20260506185407 | 58 | 122 | 0.0 | 2.0 | 0.00 | 0.13 | 0.13 | 99 | 1013.6 |
| 20260506184507 | 58 | 65 | 0.0 | 2.0 | 0.00 | 0.13 | 0.13 | 99 | 1013.4 |
| 20260506183606 | 58 | 93 | 0.0 | 3.0 | 0.00 | 0.13 | 0.13 | 99 | 1013.6 |
| 20260506182727 | 58 | 88 | 1.0 | 3.0 | 0.00 | 0.13 | 0.13 | 99 | 1013.4 |
| 20260506181806 | 59 | 0 | 0.0 | 1.0 | 0.00 | 0.13 | 0.13 | 98 | 1013.5 |
| 20260506180906 | 59 | 90 | 1.0 | 3.0 | 0.00 | 0.13 | 0.13 | 98 | 1013.5 |
| 20260506180006 | 59 | 88 | 0.0 | 3.0 | 0.00 | 0.13 | 0.13 | 97 | 1013.3 |
| 20260506175406 | 59 | 65 | 1.0 | 4.0 | 0.00 | 0.13 | 0.13 | 97 | 1013.3 |
| 20260506174506 | 59 | 69 | 0.0 | 4.0 | 0.00 | 0.13 | 0.13 | 97 | 1013.3 |
| 20260506173606 | 60 | 86 | 1.0 | 4.0 | 0.00 | 0.13 | 0.13 | 96 | 1013.3 |
| 20260506172706 | 60 | 114 | 1.0 | 4.0 | 0.00 | 0.13 | 0.13 | 96 | 1013.2 |
| 20260506171806 | 60 | 104 | 1.0 | 4.0 | 0.00 | 0.13 | 0.13 | 95 | 1013.1 |
| 20260506170906 | 60 | 71 | 1.0 | 6.0 | 0.00 | 0.13 | 0.13 | 95 | 1013.2 |
| 20260506170006 | 60 | 67 | 1.0 | 3.0 | 0.01 | 0.13 | 0.13 | 95 | 1013.1 |
| 20260506165406 | 60 | 94 | 1.0 | 4.0 | 0.01 | 0.13 | 0.13 | 95 | 1013.2 |
| 20260506164506 | 60 | 43 | 1.0 | 4.0 | 0.01 | 0.13 | 0.13 | 95 | 1013.3 |
| 20260506163606 | 61 | 78 | 1.0 | 3.0 | 0.01 | 0.13 | 0.13 | 94 | 1013.1 |
| 20260506162706 | 61 | 46 | 1.0 | 4.0 | 0.01 | 0.13 | 0.13 | 93 | 1013.2 |
| 20260506161827 | 61 | 61 | 2.0 | 5.0 | 0.01 | 0.13 | 0.13 | 92 | 1013.3 |
| 20260506160905 | 62 | 55 | 1.0 | 3.0 | 0.01 | 0.13 | 0.13 | 92 | 1013.2 |
| 20260506160006 | 62 | 87 | 1.0 | 5.0 | 0.00 | 0.12 | 0.12 | 92 | 1013.2 |
| 20260506155405 | 62 | 40 | 1.0 | 4.0 | 0.00 | 0.12 | 0.12 | 92 | 1013.1 |
| 20260506154527 | 62 | 67 | 1.0 | 4.0 | 0.00 | 0.12 | 0.12 | 91 | 1013.2 |
| 20260506153605 | 63 | 81 | 1.0 | 4.0 | 0.00 | 0.12 | 0.12 | 91 | 1013.3 |
| 20260506152706 | 63 | 83 | 1.0 | 4.0 | 0.00 | 0.12 | 0.12 | 93 | 1013.3 |
| 20260506151805 | 62 | 114 | 1.0 | 4.0 | 0.00 | 0.12 | 0.12 | 93 | 1013.4 |
| 20260506150905 | 62 | 89 | 1.0 | 3.0 | 0.00 | 0.12 | 0.12 | 94 | 1013.3 |
| 20260506150005 | 62 | 76 | 0.0 | 3.0 | 0.00 | 0.12 | 0.12 | 95 | 1013.2 |
| 20260506145426 | 62 | 106 | 0.0 | 2.0 | 0.00 | 0.13 | 0.12 | 95 | 1013.4 |
| 20260506144505 | 62 | 61 | 1.0 | 4.0 | 0.00 | 0.14 | 0.12 | 95 | 1013.2 |
| 20260506143626 | 62 | 110 | 1.0 | 4.0 | 0.00 | 0.14 | 0.12 | 96 | 1013.3 |
| 20260506142705 | 61 | 93 | 1.0 | 3.0 | 0.00 | 0.15 | 0.12 | 94 | 1013.2 |
| 20260506141805 | 61 | 91 | 1.0 | 4.0 | 0.00 | 0.15 | 0.12 | 93 | 1013.4 |
| 20260506140905 | 62 | 84 | 0.0 | 2.0 | 0.00 | 0.17 | 0.12 | 93 | 1013.2 |
| 20260506140005 | 62 | 78 | 1.0 | 5.0 | 0.00 | 0.17 | 0.12 | 94 | 1013.4 |
| 20260506135405 | 62 | 59 | 1.0 | 5.0 | 0.00 | 0.20 | 0.12 | 95 | 1013.3 |
| 20260506134505 | 62 | 92 | 0.0 | 2.0 | 0.00 | 0.26 | 0.12 | 96 | 1013.4 |
| 20260506133605 | 61 | 49 | 1.0 | 4.0 | 0.01 | 0.27 | 0.12 | 95 | 1013.4 |
| 20260506132705 | 61 | 67 | 1.0 | 3.0 | 0.01 | 0.27 | 0.12 | 96 | 1013.5 |
| 20260506131805 | 61 | 90 | 0.0 | 2.0 | 0.01 | 0.27 | 0.12 | 95 | 1013.5 |
| 20260506130905 | 61 | 77 | 0.0 | 3.0 | 0.01 | 0.27 | 0.12 | 94 | 1013.8 |
| 20260506130026 | 61 | 82 | 1.0 | 3.0 | 0.01 | 0.27 | 0.12 | 93 | 1013.8 |
| 20260506125426 | 61 | 90 | 1.0 | 4.0 | 0.01 | 0.27 | 0.12 | 92 | 1013.8 |
| 20260506124505 | 61 | 64 | 2.0 | 9.0 | 0.01 | 0.27 | 0.12 | 91 | 1014.0 |
| 20260506123605 | 62 | 271 | 2.0 | 9.0 | 0.00 | 0.26 | 0.11 | 92 | 1014.0 |
| 20260506122705 | 62 | 13 | 2.0 | 4.0 | 0.00 | 0.26 | 0.11 | 96 | 1014.0 |
| 20260506121805 | 62 | 111 | 2.0 | 4.0 | 0.00 | 0.26 | 0.11 | 98 | 1014.0 |
| 20260506120905 | 61 | 351 | 2.0 | 4.0 | 0.00 | 0.26 | 0.11 | 99 | 1014.0 |
| 20260506120005 | 60 | 17 | 2.0 | 5.0 | 0.00 | 0.26 | 0.11 | 99 | 1013.8 |
| 20260506115405 | 60 | 76 | 1.0 | 4.0 | 0.00 | 0.26 | 0.11 | 99 | 1013.8 |
| 20260506114505 | 59 | 125 | 1.0 | 4.0 | 0.00 | 0.26 | 0.11 | 99 | 1013.9 |
| 20260506113605 | 59 | 70 | 1.0 | 4.0 | 0.00 | 0.26 | 0.11 | 99 | 1014.0 |
| 20260506112705 | 59 | 63 | 1.0 | 4.0 | 0.00 | 0.26 | 0.11 | 99 | 1013.9 |
| 20260506111805 | 59 | 82 | 1.0 | 3.0 | 0.00 | 0.26 | 0.11 | 98 | 1014.1 |
| 20260506110905 | 59 | 58 | 1.0 | 3.0 | 0.00 | 0.26 | 0.11 | 98 | 1014.1 |
| 20260506110005 | 58 | 76 | 1.0 | 3.0 | 0.00 | 0.26 | 0.11 | 96 | 1014.0 |
| 20260506105405 | 58 | 93 | 1.0 | 4.0 | 0.00 | 0.26 | 0.11 | 95 | 1014.0 |
| 20260506104505 | 59 | 89 | 1.0 | 3.0 | 0.00 | 0.26 | 0.11 | 95 | 1014.1 |
| 20260506103626 | 59 | 113 | 1.0 | 3.0 | 0.00 | 0.26 | 0.11 | 94 | 1014.2 |
| 20260506102705 | 59 | 79 | 1.0 | 4.0 | 0.00 | 0.27 | 0.11 | 93 | 1014.1 |
| 20260506101804 | 59 | 99 | 2.0 | 4.0 | 0.00 | 0.27 | 0.11 | 91 | 1014.2 |
| 20260506100904 | 60 | 169 | 2.0 | 4.0 | 0.00 | 0.27 | 0.11 | 90 | 1014.1 |
| 20260506100005 | 61 | 165 | 2.0 | 4.0 | 0.00 | 0.27 | 0.11 | 89 | 1014.1 |
| 20260506095426 | 62 | 80 | 2.0 | 4.0 | 0.00 | 0.27 | 0.11 | 90 | 1014.1 |
| 20260506094504 | 64 | 83 | 2.0 | 5.0 | 0.00 | 0.27 | 0.11 | 94 | 1013.9 |
| 20260506093605 | 63 | 84 | 2.0 | 6.0 | 0.00 | 0.27 | 0.11 | 99 | 1013.8 |
| 20260506092704 | 61 | 90 | 2.0 | 8.0 | 0.00 | 0.27 | 0.11 | 99 | 1013.6 |
| 20260506091825 | 61 | 93 | 2.0 | 6.0 | 0.00 | 0.27 | 0.11 | 99 | 1013.3 |
| 20260506090904 | 60 | 83 | 2.0 | 7.0 | 0.00 | 0.27 | 0.11 | 99 | 1013.3 |
| 20260506090004 | 59 | 29 | 2.0 | 4.0 | 0.00 | 0.27 | 0.11 | 99 | 1013.4 |
| 20260506085427 | 58 | 25 | 2.0 | 4.0 | 0.00 | 0.28 | 0.11 | 99 | 1013.5 |
| 20260506084504 | 59 | 68 | 1.0 | 6.0 | 0.00 | 0.28 | 0.11 | 99 | 1013.4 |
| 20260506083604 | 59 | 53 | 2.0 | 9.0 | 0.00 | 0.28 | 0.11 | 99 | 1013.5 |
| 20260506082704 | 59 | 192 | 2.0 | 5.0 | 0.00 | 0.28 | 0.11 | 99 | 1013.5 |
| 20260506081825 | 60 | 35 | 2.0 | 8.0 | 0.00 | 0.28 | 0.11 | 99 | 1013.3 |
| 20260506080904 | 58 | 27 | 3.0 | 4.0 | 0.00 | 0.28 | 0.11 | 99 | 1013.3 |
| 20260506072704 | 56 | 103 | 2.0 | 5.0 | 0.00 | 0.30 | 0.11 | 99 | 1013.3 |
| 20260506071804 | 56 | 65 | 2.0 | 5.0 | 0.00 | 0.31 | 0.11 | 99 | 1013.2 |
| 20260506070904 | 56 | 116 | 2.0 | 5.0 | 0.01 | 0.32 | 0.11 | 99 | 1013.3 |
| 20260506061804 | 57 | 114 | 1.0 | 5.0 | 0.01 | 0.34 | 0.11 | 99 | 1013.1 |
| 20260506060904 | 57 | 316 | 2.0 | 4.0 | 0.00 | 0.33 | 0.09 | 99 | 1013.2 |
| 20260506050904 | 56 | 90 | 1.0 | 4.0 | 0.00 | 0.34 | 0.09 | 99 | 1013.0 |
| 20260506044504 | 56 | 115 | 2.0 | 8.0 | 0.00 | 0.34 | 0.09 | 99 | 1012.8 |
| 20260506043625 | 56 | 134 | 2.0 | 8.0 | 0.00 | 0.35 | 0.09 | 99 | 1012.7 |
| 20260506042704 | 56 | 76 | 1.0 | 4.0 | 0.00 | 0.35 | 0.09 | 99 | 1012.6 |
| 20260506041804 | 56 | 89 | 2.0 | 4.0 | 0.00 | 0.35 | 0.09 | 99 | 1012.7 |
| 20260506040904 | 56 | 89 | 2.0 | 4.0 | 0.00 | 0.35 | 0.09 | 99 | 1012.8 |
| 20260506040004 | 56 | 11 | 2.0 | 5.0 | 0.00 | 0.35 | 0.09 | 99 | 1012.6 |
| 20260506035403 | 55 | 51 | 2.0 | 4.0 | 0.00 | 0.37 | 0.09 | 99 | 1012.7 |
| 20260506034524 | 55 | 89 | 2.0 | 6.0 | 0.00 | 0.37 | 0.09 | 99 | 1012.8 |